Time;durP1;ratioP1;P1;durP2;ratioP2;P2;SDS_P1;SDS_P2;PMS_P1;PMS_P2;Temp;Humidity;BMP_temperature;BMP_pressure;BME280_temperature;BME280_humidity;BME280_pressure;Samples;Min_cycle;Max_cycle;Signal;HPM_P1;HPM_P2
2021/03/24 00:01:41;;;;;;;8.13;4.40;;;9.50;92.50;;;;;;5065395;28;20412;-53
2021/03/24 00:04:07;;;;;;;10.82;5.32;;;9.40;92.50;;;;;;5064922;28;20477;-53
2021/03/24 00:06:33;;;;;;;11.95;4.82;;;9.40;92.40;;;;;;5065298;28;20071;-54
2021/03/24 00:09:00;;;;;;;9.43;5.32;;;9.30;92.70;;;;;;5064899;28;20503;-54
2021/03/24 00:11:26;;;;;;;11.38;5.65;;;9.30;92.70;;;;;;5063510;28;20380;-53
2021/03/24 00:13:52;;;;;;;9.05;4.68;;;9.30;92.90;;;;;;5065642;28;20051;-53
2021/03/24 00:16:19;;;;;;;9.02;5.15;;;9.40;93.10;;;;;;5064539;28;20052;-53
2021/03/24 00:18:45;;;;;;;13.15;5.70;;;9.50;93.10;;;;;;5064940;28;20049;-54
2021/03/24 00:21:10;;;;;;;8.50;5.15;;;9.50;93.00;;;;;;5064742;28;20526;-54
2021/03/24 00:23:36;;;;;;;13.85;5.90;;;9.50;93.10;;;;;;5064574;28;20020;-54
2021/03/24 00:26:02;;;;;;;13.90;5.93;;;9.50;92.90;;;;;;5064774;28;20024;-53
2021/03/24 00:28:28;;;;;;;9.57;5.35;;;9.40;93.00;;;;;;5064754;28;20025;-52
2021/03/24 00:30:54;;;;;;;8.23;5.00;;;9.30;93.30;;;;;;5065373;28;20025;-53
2021/03/24 00:33:24;;;;;;;9.23;5.20;;;9.30;93.70;;;;;;5064477;28;20024;-54
2021/03/24 00:35:50;;;;;;;10.07;5.18;;;9.10;93.50;;;;;;5065134;28;20474;-54
2021/03/24 00:38:18;;;;;;;12.90;5.80;;;9.00;94.30;;;;;;5064507;28;20028;-54
2021/03/24 00:40:48;;;;;;;11.07;5.57;;;9.10;94.30;;;;;;5064775;28;20470;-54
2021/03/24 00:43:13;;;;;;;16.65;7.70;;;9.20;94.20;;;;;;5064464;28;20021;-54
2021/03/24 00:45:40;;;;;;;16.50;8.32;;;9.20;94.10;;;;;;5064856;28;20396;-53
2021/03/24 00:48:08;;;;;;;13.82;7.97;;;9.10;94.00;;;;;;5064490;28;20021;-53
2021/03/24 00:50:35;;;;;;;11.30;6.90;;;9.10;94.10;;;;;;5064076;28;20097;-53
2021/03/24 00:53:02;;;;;;;12.77;6.80;;;9.10;94.30;;;;;;5064492;28;20549;-54
2021/03/24 00:55:28;;;;;;;12.00;6.78;;;9.10;94.10;;;;;;5064247;28;20397;-53
2021/03/24 00:57:54;;;;;;;13.48;7.55;;;9.00;94.30;;;;;;5065629;28;20024;-52
2021/03/24 01:00:20;;;;;;;11.85;6.97;;;9.00;94.50;;;;;;5064940;28;20032;-52
2021/03/24 01:02:47;;;;;;;12.95;7.40;;;8.80;94.40;;;;;;5064440;28;20035;-53
2021/03/24 01:05:16;;;;;;;12.80;7.45;;;8.60;94.90;;;;;;5064255;28;20071;-54
2021/03/24 01:07:43;;;;;;;13.30;7.38;;;8.60;95.40;;;;;;5064368;28;20055;-53
2021/03/24 01:10:35;;;;;;;14.73;7.43;;;8.60;95.40;;;;;;5064500;28;20487;-53
2021/03/24 01:13:01;;;;;;;11.57;6.72;;;8.50;95.00;;;;;;5064236;28;20035;-54
2021/03/24 01:15:27;;;;;;;10.13;5.88;;;8.30;96.30;;;;;;5064170;28;20032;-54
2021/03/24 01:17:55;;;;;;;11.82;6.45;;;8.20;97.10;;;;;;5064836;28;20036;-53
2021/03/24 01:20:24;;;;;;;9.57;5.35;;;8.10;97.50;;;;;;5064612;28;20562;-53
2021/03/24 01:22:50;;;;;;;11.88;6.50;;;8.40;96.60;;;;;;5064715;28;20069;-54
2021/03/24 01:25:17;;;;;;;9.57;5.97;;;8.40;96.30;;;;;;5063935;28;20402;-53
2021/03/24 01:27:43;;;;;;;13.52;6.82;;;8.40;96.70;;;;;;5064403;28;20429;-53
2021/03/24 01:30:10;;;;;;;13.38;6.95;;;8.30;96.40;;;;;;5064339;28;20033;-51
2021/03/24 01:32:36;;;;;;;12.55;5.60;;;8.50;96.30;;;;;;5064154;28;20036;-54
2021/03/24 01:35:02;;;;;;;11.90;6.05;;;8.50;96.00;;;;;;5064236;28;20050;-54
2021/03/24 01:37:28;;;;;;;10.40;5.32;;;8.50;95.80;;;;;;5063877;28;20028;-54
2021/03/24 01:39:54;;;;;;;9.32;4.90;;;8.50;95.80;;;;;;5065003;28;20182;-54
2021/03/24 01:42:19;;;;;;;13.35;6.75;;;8.50;95.80;;;;;;5064230;28;20518;-54
2021/03/24 01:45:00;;;;;;;13.02;5.95;;;8.40;95.90;;;;;;5063980;28;20567;-54
2021/03/24 01:47:28;;;;;;;10.90;5.15;;;8.20;96.10;;;;;;5063991;28;20025;-53
2021/03/24 01:49:56;;;;;;;9.55;5.13;;;8.20;96.10;;;;;;5065149;28;20025;-53
2021/03/24 01:52:22;;;;;;;9.52;5.82;;;8.10;96.80;;;;;;5068263;28;20516;-52
2021/03/24 01:54:50;;;;;;;11.73;6.10;;;7.80;98.40;;;;;;5067484;28;20023;-53
2021/03/24 01:57:20;;;;;;;12.75;6.18;;;7.60;99.50;;;;;;5067498;28;20336;-51
2021/03/24 01:59:50;;;;;;;8.68;5.90;;;7.40;99.90;;;;;;5067561;28;20020;-53
2021/03/24 02:02:33;;;;;;;8.50;4.80;;;7.20;99.90;;;;;;5068068;28;20025;-54
2021/03/24 02:05:00;;;;;;;9.00;4.68;;;7.40;99.90;;;;;;5067759;28;20119;-54
2021/03/24 02:07:33;;;;;;;7.20;4.93;;;7.40;99.90;;;;;;5067249;28;20025;-53
2021/03/24 02:10:08;;;;;;;7.60;4.60;;;7.30;99.90;;;;;;5067430;28;20043;-53
2021/03/24 02:12:51;;;;;;;8.07;4.90;;;7.30;99.90;;;;;;5048949;28;20032;-53
2021/03/24 02:15:28;;;;;;;8.13;5.18;;;7.10;99.90;;;;;;5067295;28;20158;-52
2021/03/24 02:17:56;;;;;;;9.43;5.00;;;6.90;99.90;;;;;;5068177;28;20039;-54
2021/03/24 02:20:46;;;;;;;8.95;4.03;;;6.70;99.90;;;;;;5067964;28;20021;-54
2021/03/24 02:23:20;;;;;;;7.63;4.22;;;7.20;99.90;;;;;;5067046;28;20032;-52
2021/03/24 02:25:53;;;;;;;;;;;7.40;99.90;;;;;;5067545;28;20035;-53
2021/03/24 02:28:20;;;;;;;9.15;4.82;;;7.50;99.90;;;;;;5066846;28;19911;-53
2021/03/24 02:30:47;;;;;;;10.18;5.10;;;7.50;99.90;;;;;;5067194;28;20056;-53
2021/03/24 02:33:18;;;;;;;11.65;5.38;;;7.70;99.90;;;;;;5066977;28;20064;-53
2021/03/24 02:35:47;;;;;;;15.00;6.95;;;7.80;99.90;;;;;;5066926;28;20024;-54
2021/03/24 02:38:14;;;;;;;14.52;8.57;;;7.70;99.90;;;;;;5067119;28;20308;-54
2021/03/24 02:40:41;;;;;;;16.92;8.68;;;7.60;99.90;;;;;;5066715;28;20032;-53
2021/03/24 02:43:09;;;;;;;15.25;8.27;;;7.60;99.90;;;;;;5066857;28;20024;-53
2021/03/24 02:45:40;;;;;;;15.75;7.57;;;7.60;99.90;;;;;;5066548;28;20120;-54
2021/03/24 02:48:10;;;;;;;18.25;7.78;;;7.50;99.90;;;;;;5066596;28;20135;-54
2021/03/24 02:50:39;;;;;;;15.13;7.00;;;7.30;99.90;;;;;;5065963;28;20024;-53
2021/03/24 02:53:07;;;;;;;13.63;7.43;;;7.50;99.90;;;;;;5066777;28;20028;-53
2021/03/24 02:55:35;;;;;;;12.38;7.10;;;7.60;99.90;;;;;;5066371;28;20107;-51
2021/03/24 02:58:01;;;;;;;17.52;7.75;;;7.50;99.90;;;;;;5066410;28;20074;-53
2021/03/24 03:00:27;;;;;;;11.43;7.10;;;7.50;99.90;;;;;;5066679;28;20478;-53
2021/03/24 03:03:02;;;;;;;17.20;7.65;;;7.30;99.90;;;;;;5065537;28;20052;-54
2021/03/24 03:05:34;;;;;;;11.38;6.72;;;7.40;99.90;;;;;;5066164;28;20557;-54
2021/03/24 03:08:06;;;;;;;13.25;7.32;;;7.50;99.90;;;;;;5066732;28;20074;-54
2021/03/24 03:10:32;;;;;;;16.08;7.35;;;7.50;99.90;;;;;;5066025;28;20020;-53
2021/03/24 03:13:07;;;;;;;15.05;7.25;;;7.40;99.90;;;;;;5066204;28;20025;-54
2021/03/24 03:15:59;;;;;;;12.32;7.45;;;7.40;99.90;;;;;;5065990;28;20074;-52
2021/03/24 03:18:31;;;;;;;14.38;7.70;;;7.40;99.90;;;;;;5064896;28;20036;-54
2021/03/24 03:21:01;;;;;;;16.23;7.55;;;7.30;99.90;;;;;;5066162;28;20054;-53
2021/03/24 03:23:30;;;;;;;11.75;7.40;;;7.30;99.90;;;;;;5065694;28;20024;-53
2021/03/24 03:26:03;;;;;;;12.40;6.32;;;7.20;99.90;;;;;;5066132;28;20020;-52
2021/03/24 03:28:31;;;;;;;12.10;6.50;;;7.20;99.90;;;;;;5064467;28;20476;-53
2021/03/24 03:30:58;;;;;;;10.40;6.80;;;7.10;99.90;;;;;;5066055;28;20100;-53
2021/03/24 03:33:28;;;;;;;12.25;6.35;;;7.20;99.90;;;;;;5065971;28;20029;-52
2021/03/24 03:35:55;;;;;;;13.35;7.40;;;7.10;99.90;;;;;;5066523;28;20028;-53
2021/03/24 03:38:26;;;;;;;11.98;7.03;;;6.70;99.90;;;;;;5066136;28;20075;-53
2021/03/24 03:40:55;;;;;;;11.75;6.55;;;6.70;99.90;;;;;;5066430;28;20071;-53
2021/03/24 03:43:24;;;;;;;10.88;6.47;;;6.80;99.90;;;;;;5065759;28;20505;-53
2021/03/24 03:45:52;;;;;;;11.82;6.10;;;6.70;99.90;;;;;;5048494;28;20021;-54
2021/03/24 03:48:19;;;;;;;11.07;6.10;;;6.70;99.90;;;;;;5046186;28;20029;-54
2021/03/24 03:50:57;;;;;;;14.25;7.95;;;6.90;99.90;;;;;;5044859;28;20017;-53
2021/03/24 03:54:18;;;;;;;13.07;7.65;;;6.90;99.90;;;;;;5045197;28;20068;-53
2021/03/24 03:57:18;;;;;;;16.50;7.75;;;6.60;99.90;;;;;;5051746;28;20047;-52
2021/03/24 03:59:57;;;;;;;14.57;7.00;;;6.60;99.90;;;;;;5044988;28;20025;-52
2021/03/24 04:02:34;;;;;;;11.07;6.38;;;6.50;99.90;;;;;;5044544;28;20021;-52
2021/03/24 04:05:12;;;;;;;14.63;7.25;;;6.80;99.90;;;;;;5045019;28;20021;-53
2021/03/24 04:07:44;;;;;;;12.40;6.25;;;6.50;99.90;;;;;;5045077;28;20100;-53
2021/03/24 04:10:11;;;;;;;9.75;6.05;;;6.40;99.90;;;;;;5045170;28;20025;-53
2021/03/24 04:12:39;;;;;;;11.93;6.55;;;6.40;99.90;;;;;;5044803;28;20025;-52
2021/03/24 04:15:12;;;;;;;10.15;6.28;;;6.20;99.90;;;;;;5045114;28;20525;-54
2021/03/24 04:17:44;;;;;;;9.40;5.82;;;6.10;99.90;;;;;;5043063;28;20047;-53
2021/03/24 04:20:12;;;;;;;10.77;5.63;;;6.00;99.90;;;;;;5044536;28;20108;-54
2021/03/24 04:22:37;;;;;;;11.98;6.15;;;6.00;99.90;;;;;;5044199;28;20411;-52
2021/03/24 04:25:04;;;;;;;10.27;5.28;;;6.00;99.90;;;;;;5044883;28;20025;-53
2021/03/24 04:27:36;;;;;;;10.15;5.85;;;6.30;99.90;;;;;;5044706;28;20411;-53
2021/03/24 04:30:09;;;;;;;9.93;6.03;;;6.30;99.90;;;;;;5044838;28;20453;-51
2021/03/24 04:32:36;;;;;;;12.48;6.63;;;6.30;99.90;;;;;;5043020;28;20021;-53
2021/03/24 04:35:04;;;;;;;12.55;6.30;;;6.40;99.90;;;;;;5045044;28;20053;-52
2021/03/24 04:37:38;;;;;;;9.45;6.38;;;6.50;99.90;;;;;;5044980;28;20380;-54
2021/03/24 04:40:07;;;;;;;14.25;6.57;;;6.60;99.90;;;;;;5044924;28;20019;-53
2021/03/24 04:42:39;;;;;;;10.75;6.55;;;6.60;99.90;;;;;;5044480;28;20127;-53
2021/03/24 04:45:34;;;;;;;11.98;6.38;;;6.50;99.90;;;;;;5044377;28;20025;-54
2021/03/24 04:48:03;;;;;;;12.32;6.20;;;6.30;99.90;;;;;;5044569;28;20372;-53
2021/03/24 04:50:38;;;;;;;11.00;6.40;;;6.30;99.90;;;;;;5043858;28;20031;-52
2021/03/24 04:53:06;;;;;;;11.02;6.47;;;6.40;99.90;;;;;;5043569;28;20442;-53
2021/03/24 04:55:34;;;;;;;9.88;6.53;;;6.60;99.90;;;;;;5044441;28;20033;-50
2021/03/24 04:58:03;;;;;;;10.98;6.28;;;6.50;99.90;;;;;;5044335;28;20499;-52
2021/03/24 05:00:36;;;;;;;10.13;5.55;;;6.50;99.90;;;;;;5043750;28;20407;-54
2021/03/24 05:03:15;;;;;;;11.65;6.10;;;6.30;99.90;;;;;;5043964;28;20075;-53
2021/03/24 05:05:45;;;;;;;16.35;6.75;;;6.20;99.90;;;;;;5044942;28;20293;-51
2021/03/24 05:08:32;;;;;;;13.68;6.22;;;6.30;99.90;;;;;;5044574;28;20024;-53
2021/03/24 05:11:05;;;;;;;10.02;5.93;;;6.60;99.90;;;;;;5044018;28;20109;-53
2021/03/24 05:13:40;;;;;;;12.00;6.57;;;6.70;99.90;;;;;;5044148;28;20033;-53
2021/03/24 05:16:27;;;;;;;12.85;7.00;;;6.70;99.90;;;;;;5044483;28;20497;-53
2021/03/24 05:18:55;;;;;;;11.88;6.75;;;6.60;99.90;;;;;;5044633;28;20555;-53
2021/03/24 05:21:46;;;;;;;11.55;6.22;;;6.60;99.90;;;;;;5044873;28;20119;-53
2021/03/24 05:24:17;;;;;;;11.98;6.90;;;6.50;99.90;;;;;;5051903;28;20052;-53
2021/03/24 05:26:48;;;;;;;11.23;6.13;;;6.60;99.90;;;;;;5048208;28;20020;-53
2021/03/24 05:29:22;;;;;;;12.88;6.32;;;6.40;99.90;;;;;;5048277;28;20029;-53
2021/03/24 05:31:52;;;;;;;10.25;6.72;;;6.20;99.90;;;;;;5048781;28;20028;-53
2021/03/24 05:34:27;;;;;;;11.38;6.20;;;5.90;99.90;;;;;;5048429;28;20029;-53
2021/03/24 05:36:54;;;;;;;10.00;5.65;;;6.20;99.90;;;;;;5048187;28;20021;-54
2021/03/24 05:39:34;;;;;;;10.63;5.40;;;6.50;99.90;;;;;;5048389;28;20210;-52
2021/03/24 05:42:03;;;;;;;8.27;5.35;;;6.70;99.90;;;;;;5049913;28;20150;-54
2021/03/24 05:44:47;;;;;;;9.70;5.88;;;6.70;99.90;;;;;;5068275;28;20021;-53
2021/03/24 05:47:36;;;;;;;11.60;5.93;;;6.70;99.90;;;;;;5066996;28;20032;-53
2021/03/24 05:50:22;;;;;;;12.25;6.45;;;6.80;99.90;;;;;;5067624;28;20063;-52
2021/03/24 05:52:54;;;;;;;12.98;7.13;;;6.60;99.90;;;;;;5067291;28;20036;-53
2021/03/24 05:55:34;;;;;;;11.88;6.50;;;6.50;99.90;;;;;;5067788;28;20134;-54
2021/03/24 05:58:15;;;;;;;13.15;6.65;;;6.60;99.90;;;;;;5067024;28;20316;-52
2021/03/24 06:01:18;;;;;;;11.07;6.38;;;6.50;99.90;;;;;;5067516;28;20056;-53
2021/03/24 06:03:46;;;;;;;10.68;6.43;;;6.60;99.90;;;;;;5067741;28;20044;-54
2021/03/24 06:06:43;;;;;;;15.07;6.30;;;6.50;99.90;;;;;;5067264;28;20045;-52
2021/03/24 06:09:08;;;;;;;10.38;6.30;;;6.60;99.90;;;;;;5067290;28;20036;-52
2021/03/24 06:11:48;;;;;;;13.07;7.05;;;6.50;99.90;;;;;;5067830;28;20499;-54
2021/03/24 06:14:41;;;;;;;12.13;6.80;;;6.50;99.90;;;;;;5066854;28;20604;-53
2021/03/24 06:17:31;;;;;;;13.65;6.90;;;6.60;99.90;;;;;;5066566;28;20039;-54
2021/03/24 06:20:25;;;;;;;15.48;6.75;;;6.60;99.90;;;;;;5066090;28;20410;-51
2021/03/24 06:23:13;;;;;;;10.85;5.97;;;6.60;99.90;;;;;;5067639;28;20131;-53
2021/03/24 06:25:51;;;;;;;13.50;6.70;;;6.50;99.90;;;;;;5067329;28;20024;-53
2021/03/24 06:28:16;;;;;;;14.38;7.22;;;6.40;99.90;;;;;;5066942;28;20475;-53
2021/03/24 06:31:20;;;;;;;15.75;8.07;;;6.30;99.90;;;;;;5067507;28;20313;-53
2021/03/24 06:34:23;;;;;;;14.88;8.25;;;6.50;99.90;;;;;;5066578;28;20039;-52
2021/03/24 06:37:46;;;;;;;15.93;8.43;;;6.60;99.90;;;;;;5066957;28;20020;-50
2021/03/24 06:40:33;;;;;;;15.95;7.82;;;6.50;99.90;;;;;;5064116;28;21135;-54
2021/03/24 06:43:23;;;;;;;14.73;8.50;;;6.40;99.90;;;;;;5064297;28;20398;-53
2021/03/24 06:46:22;;;;;;;18.38;9.63;;;6.60;99.90;;;;;;5064925;28;20040;-53
2021/03/24 06:49:29;;;;;;;13.95;8.25;;;6.60;99.90;;;;;;5059584;28;20569;-53
2021/03/24 06:52:29;;;;;;;15.57;9.65;;;6.60;99.90;;;;;;5048560;28;20021;-53
2021/03/24 06:55:32;;;;;;;14.05;8.73;;;6.60;99.90;;;;;;5080193;28;20016;-53
2021/03/24 06:58:16;;;;;;;14.68;7.50;;;6.80;99.90;;;;;;5067192;28;20025;-53
2021/03/24 07:00:45;;;;;;;18.88;9.80;;;7.00;99.90;;;;;;5084884;28;20103;-53
2021/03/24 07:03:29;;;;;;;26.13;13.35;;;7.10;99.90;;;;;;5087737;28;20075;-54
2021/03/24 07:06:02;;;;;;;;;;;7.20;99.90;;;;;;5072273;28;20032;-53
2021/03/24 07:08:42;;;;;;;22.15;12.48;;;7.20;99.90;;;;;;5067443;28;20282;-52
2021/03/24 07:11:39;;;;;;;19.40;10.57;;;7.20;99.90;;;;;;5067373;28;20081;-53
2021/03/24 07:14:42;;;;;;;15.63;8.60;;;7.30;99.90;;;;;;5065933;28;20024;-53
2021/03/24 07:17:42;;;;;;;15.27;8.65;;;7.30;99.90;;;;;;5047039;28;20044;-52
2021/03/24 07:20:26;;;;;;;16.77;7.70;;;7.30;99.90;;;;;;5045985;28;20032;-54
2021/03/24 07:23:18;;;;;;;12.40;7.80;;;7.40;99.90;;;;;;5053318;28;20094;-54
2021/03/24 07:25:45;;;;;;;13.20;7.32;;;7.60;99.90;;;;;;5057843;28;20103;-56
2021/03/24 07:28:50;;;;;;;12.88;6.75;;;7.60;99.90;;;;;;5066207;28;20020;-54
2021/03/24 07:31:38;;;;;;;13.80;6.88;;;7.60;99.90;;;;;;5065361;28;20097;-55
2021/03/24 07:34:28;;;;;;;9.90;6.25;;;7.70;99.90;;;;;;5056476;28;20043;-54
2021/03/24 07:37:20;;;;;;;11.77;6.38;;;7.80;99.90;;;;;;5047152;28;20052;-52
2021/03/24 07:40:01;;;;;;;10.23;6.28;;;7.90;99.90;;;;;;5046955;28;20051;-54
2021/03/24 07:43:06;;;;;;;10.13;6.15;;;8.00;99.90;;;;;;5061342;28;20039;-53
2021/03/24 07:45:56;;;;;;;12.75;5.60;;;8.10;99.90;;;;;;5052860;28;20044;-52
2021/03/24 07:48:37;;;;;;;9.98;5.70;;;8.00;99.90;;;;;;5046125;28;20060;-53
2021/03/24 07:51:15;;;;;;;10.35;5.88;;;8.00;99.90;;;;;;5061118;28;20086;-53
2021/03/24 07:53:51;;;;;;;8.20;4.88;;;8.20;99.90;;;;;;5066399;28;20080;-50
2021/03/24 07:56:43;;;;;;;8.95;5.82;;;8.20;99.90;;;;;;5066961;28;20028;-56
2021/03/24 07:59:24;;;;;;;9.90;5.20;;;8.20;99.90;;;;;;5065486;28;20495;-55
2021/03/24 08:02:07;;;;;;;9.75;5.35;;;8.30;99.90;;;;;;5054516;28;20024;-54
2021/03/24 08:04:43;;;;;;;9.90;5.75;;;8.40;99.90;;;;;;5065265;28;20024;-55
2021/03/24 08:07:42;;;;;;;6.45;4.57;;;8.40;99.90;;;;;;5065554;28;20016;-54
2021/03/24 08:10:43;;;;;;;8.90;5.32;;;8.40;99.90;;;;;;5058535;28;20044;-53
2021/03/24 08:13:11;;;;;;;10.73;5.07;;;8.50;99.90;;;;;;5059199;28;20032;-53
2021/03/24 08:16:15;;;;;;;7.97;4.78;;;8.50;99.90;;;;;;5044103;28;20090;-53
2021/03/24 08:19:02;;;;;;;8.43;4.88;;;8.40;99.90;;;;;;5045939;28;20082;-54
2021/03/24 08:22:04;;;;;;;8.48;5.15;;;8.60;99.90;;;;;;5062713;28;20185;-55
2021/03/24 08:24:51;;;;;;;9.02;4.75;;;8.80;99.90;;;;;;5051113;28;20119;-55
2021/03/24 08:27:49;;;;;;;6.40;4.05;;;8.80;99.90;;;;;;5062130;28;20115;-53
2021/03/24 08:30:20;;;;;;;9.68;5.00;;;8.90;99.90;;;;;;5056573;28;20021;-50
2021/03/24 08:33:04;;;;;;;9.43;4.50;;;8.90;99.90;;;;;;5045425;28;20499;-50
2021/03/24 08:35:57;;;;;;;7.57;4.30;;;9.00;99.90;;;;;;5046645;28;20121;-52
2021/03/24 08:38:34;;;;;;;6.10;3.97;;;8.90;99.90;;;;;;5054087;28;20036;-52
2021/03/24 08:41:19;;;;;;;7.68;4.35;;;9.10;99.90;;;;;;5045167;28;20029;-52
2021/03/24 08:43:46;;;;;;;7.32;4.43;;;9.10;99.90;;;;;;5058915;28;20024;-55
2021/03/24 08:46:35;;;;;;;6.90;4.28;;;9.20;99.90;;;;;;5062391;28;20032;-54
2021/03/24 08:49:17;;;;;;;6.60;3.80;;;9.20;99.90;;;;;;5052641;28;20013;-53
2021/03/24 08:51:55;;;;;;;5.88;3.60;;;9.20;99.90;;;;;;5054949;28;20453;-54
2021/03/24 08:54:39;;;;;;;5.32;3.45;;;9.30;99.90;;;;;;5065999;28;20047;-54
2021/03/24 08:57:16;;;;;;;5.38;3.30;;;9.40;99.90;;;;;;5045976;28;20047;-52
2021/03/24 08:59:51;;;;;;;7.53;3.35;;;9.40;99.90;;;;;;5047651;28;20671;-53
2021/03/24 09:02:35;;;;;;;4.97;2.75;;;9.50;99.90;;;;;;5055573;28;20029;-52
2021/03/24 09:05:21;;;;;;;5.32;3.35;;;9.70;99.90;;;;;;5067816;28;20574;-53
2021/03/24 09:08:07;;;;;;;5.88;3.30;;;9.70;99.90;;;;;;5059565;28;20029;-52
2021/03/24 09:10:51;;;;;;;4.63;2.47;;;9.80;99.90;;;;;;5045119;28;20052;-53
2021/03/24 09:13:30;;;;;;;;;;;10.00;99.90;;;;;;5046128;28;20613;-53
2021/03/24 09:16:24;;;;;;;5.13;3.13;;;9.90;99.90;;;;;;5045925;28;19908;-53
2021/03/24 09:19:26;;;;;;;5.35;3.53;;;9.80;99.90;;;;;;5046137;28;20108;-52
2021/03/24 09:22:29;;;;;;;4.95;2.75;;;9.60;99.90;;;;;;5045736;28;20021;-52
2021/03/24 09:25:26;;;;;;;3.10;2.35;;;9.70;99.90;;;;;;5045561;28;20033;-52
2021/03/24 09:28:13;;;;;;;4.38;2.63;;;9.70;99.90;;;;;;5045449;28;20489;-51
2021/03/24 09:30:53;;;;;;;4.53;2.22;;;10.20;99.90;;;;;;5046038;28;20028;-52
2021/03/24 09:33:27;;;;;;;4.40;2.25;;;10.50;99.90;;;;;;5057916;28;20103;-51
2021/03/24 09:36:39;;;;;;;3.15;1.75;;;10.60;99.90;;;;;;5065552;28;20489;-52
2021/03/24 09:39:34;;;;;;;3.17;2.20;;;10.70;99.90;;;;;;5053361;28;20025;-52
2021/03/24 09:42:19;;;;;;;2.40;1.80;;;10.60;99.90;;;;;;5046645;28;20566;-49
2021/03/24 09:44:54;;;;;;;2.95;1.95;;;10.80;99.90;;;;;;5057739;28;20058;-53
2021/03/24 09:47:31;;;;;;;3.85;2.38;;;10.80;99.90;;;;;;5064673;28;20099;-52
2021/03/24 09:50:20;;;;;;;3.72;2.38;;;10.60;99.90;;;;;;5045883;28;20079;-52
2021/03/24 09:52:59;;;;;;;6.28;2.83;;;10.80;99.90;;;;;;5044849;28;20068;-51
2021/03/24 09:55:40;;;;;;;5.35;2.50;;;11.00;99.90;;;;;;5045007;28;20021;-52
2021/03/24 09:58:09;;;;;;;3.47;2.17;;;10.80;99.80;;;;;;5045413;28;20029;-52
2021/03/24 10:00:41;;;;;;;3.55;2.10;;;10.90;99.90;;;;;;5054922;28;20360;-52
2021/03/24 10:03:34;;;;;;;2.40;1.70;;;10.80;99.90;;;;;;5064944;28;20487;-53
2021/03/24 10:06:02;;;;;;;3.28;2.42;;;11.10;99.90;;;;;;5046200;28;20092;-53
2021/03/24 10:08:44;;;;;;;4.55;2.67;;;11.00;99.20;;;;;;5045296;28;20029;-53
2021/03/24 10:11:25;;;;;;;2.53;1.83;;;10.90;98.90;;;;;;5044001;28;20024;-49
2021/03/24 10:14:14;;;;;;;2.88;1.70;;;11.00;99.90;;;;;;5060371;28;20043;-50
2021/03/24 10:16:48;;;;;;;3.67;1.92;;;11.10;98.60;;;;;;5061262;28;20096;-52
2021/03/24 10:19:30;;;;;;;3.43;2.30;;;11.20;99.00;;;;;;5052484;28;20051;-51
2021/03/24 10:22:08;;;;;;;2.95;1.60;;;11.00;98.10;;;;;;5050003;28;20434;-50
2021/03/24 10:24:42;;;;;;;2.03;1.30;;;11.30;99.90;;;;;;5061647;28;20016;-52
2021/03/24 10:27:12;;;;;;;2.55;1.38;;;11.40;99.10;;;;;;5065404;28;20025;-48
2021/03/24 10:29:50;;;;;;;2.17;1.38;;;11.50;99.40;;;;;;5047433;28;20040;-51
2021/03/24 10:32:46;;;;;;;3.33;2.00;;;11.80;99.30;;;;;;5047108;28;20024;-56
2021/03/24 10:35:46;;;;;;;2.92;1.80;;;12.20;99.70;;;;;;5046832;28;20029;-57
2021/03/24 10:38:39;;;;;;;2.83;1.58;;;12.10;99.40;;;;;;5049756;28;20482;-58
2021/03/24 10:41:04;;;;;;;2.60;1.65;;;12.30;98.60;;;;;;5051497;28;20108;-58
2021/03/24 10:44:01;;;;;;;2.67;1.65;;;12.40;97.00;;;;;;5062405;28;20111;-57
2021/03/24 10:46:43;;;;;;;2.58;1.63;;;12.50;97.70;;;;;;5054997;28;20511;-57
2021/03/24 10:49:23;;;;;;;2.75;1.75;;;12.50;98.60;;;;;;5045822;28;20039;-58
2021/03/24 10:52:12;;;;;;;2.33;1.45;;;12.50;97.10;;;;;;5046031;28;20029;-57
2021/03/24 10:54:39;;;;;;;2.00;1.20;;;12.70;97.20;;;;;;5047025;28;20514;-57
2021/03/24 10:57:13;;;;;;;1.52;1.13;;;12.60;97.10;;;;;;5045850;28;20032;-57
2021/03/24 11:00:14;;;;;;;3.90;2.20;;;12.70;97.00;;;;;;5046540;28;20135;-57
2021/03/24 11:03:05;;;;;;;5.43;3.05;;;12.40;95.90;;;;;;5047301;28;20045;-57
2021/03/24 11:05:37;;;;;;;5.20;2.72;;;12.50;96.40;;;;;;5056130;28;20087;-57
2021/03/24 11:08:16;;;;;;;5.13;2.17;;;12.60;97.10;;;;;;5066706;28;20033;-57
2021/03/24 11:11:14;;;;;;;4.28;2.22;;;12.80;97.00;;;;;;5063721;28;20029;-58
2021/03/24 11:13:47;;;;;;;2.85;1.80;;;12.90;96.60;;;;;;5059215;28;20530;-57
2021/03/24 11:16:26;;;;;;;6.13;3.20;;;13.00;95.70;;;;;;5048535;28;20029;-57
2021/03/24 11:18:57;;;;;;;5.40;3.13;;;12.90;95.60;;;;;;5054486;28;20066;-58
2021/03/24 11:21:22;;;;;;;4.22;2.60;;;12.80;95.30;;;;;;5048914;28;20508;-58
2021/03/24 11:23:54;;;;;;;3.30;2.25;;;13.00;95.00;;;;;;5044035;28;20108;-58
2021/03/24 11:26:49;;;;;;;3.25;1.85;;;13.20;95.20;;;;;;5045140;28;20087;-57
2021/03/24 11:29:21;;;;;;;2.75;1.95;;;13.30;95.30;;;;;;5045225;28;20025;-58
2021/03/24 11:32:05;;;;;;;6.63;3.70;;;13.40;94.90;;;;;;5045802;28;20025;-57
2021/03/24 11:34:38;;;;;;;7.75;3.97;;;13.60;94.20;;;;;;5045869;28;20045;-57
2021/03/24 11:37:18;;;;;;;6.20;3.15;;;13.60;94.20;;;;;;5045686;28;20013;-57
2021/03/24 11:39:53;;;;;;;6.40;2.83;;;13.50;94.10;;;;;;5045080;28;20033;-57
2021/03/24 11:42:22;;;;;;;3.88;2.10;;;13.60;94.70;;;;;;5045188;28;20032;-57
2021/03/24 11:44:50;;;;;;;2.65;1.75;;;13.90;93.90;;;;;;5043478;28;20067;-57
2021/03/24 11:47:49;;;;;;;2.35;1.58;;;14.60;93.80;;;;;;5048543;28;20052;-58
2021/03/24 11:50:25;;;;;;;4.10;1.92;;;14.70;94.80;;;;;;5051564;28;20025;-59
2021/03/24 11:53:39;;;;;;;3.72;1.98;;;14.50;91.30;;;;;;5050039;28;20021;-58
2021/03/24 11:56:34;;;;;;;3.78;2.20;;;14.60;91.50;;;;;;5048569;28;20549;-57
2021/03/24 11:59:37;;;;;;;4.35;2.20;;;14.60;92.30;;;;;;5063572;28;20398;-58
2021/03/24 12:02:06;;;;;;;3.13;1.85;;;14.80;93.00;;;;;;5061842;28;20135;-57
2021/03/24 12:05:05;;;;;;;3.25;2.13;;;15.30;92.40;;;;;;5045425;28;20025;-57
2021/03/24 12:07:59;;;;;;;2.05;1.45;;;15.30;92.70;;;;;;5055500;28;20033;-58
2021/03/24 12:10:37;;;;;;;3.28;1.90;;;15.50;92.90;;;;;;5064152;28;20499;-55
2021/03/24 12:13:20;;;;;;;1.77;1.30;;;15.60;93.50;;;;;;5044852;28;20049;-55
2021/03/24 12:15:57;;;;;;;4.07;2.47;;;16.10;91.20;;;;;;5044582;28;20021;-50
2021/03/24 12:18:23;;;;;;;3.17;1.85;;;15.80;90.20;;;;;;5044409;28;20025;-52
2021/03/24 12:21:02;;;;;;;2.63;1.70;;;16.00;90.30;;;;;;5044741;28;20078;-50
2021/03/24 12:23:35;;;;;;;2.60;1.63;;;16.10;90.50;;;;;;5046444;28;20029;-54
2021/03/24 12:26:02;;;;;;;2.03;1.65;;;16.40;90.30;;;;;;5042852;28;20415;-54
2021/03/24 12:28:37;;;;;;;3.45;1.70;;;16.40;88.60;;;;;;5044439;28;20068;-53
2021/03/24 12:31:10;;;;;;;4.00;2.15;;;16.50;88.50;;;;;;5044249;28;20074;-55
2021/03/24 12:33:41;;;;;;;2.05;1.65;;;16.60;87.10;;;;;;5043772;28;20045;-57
2021/03/24 12:36:21;;;;;;;2.97;2.10;;;16.70;86.00;;;;;;5044229;28;20029;-56
2021/03/24 12:38:51;;;;;;;3.45;2.15;;;16.60;84.90;;;;;;5044359;28;20032;-55
2021/03/24 12:41:38;;;;;;;1.63;1.27;;;16.50;84.00;;;;;;5043931;28;20033;-56
2021/03/24 12:44:21;;;;;;;2.55;1.92;;;16.90;84.50;;;;;;5045531;28;20511;-55
2021/03/24 12:47:23;;;;;;;3.17;2.33;;;16.80;81.60;;;;;;5063719;28;20071;-54
2021/03/24 12:50:04;;;;;;;3.15;1.85;;;16.80;83.00;;;;;;5062464;28;20058;-54
2021/03/24 12:52:39;;;;;;;2.90;1.42;;;16.80;81.60;;;;;;5054448;28;20028;-55
2021/03/24 12:55:05;;;;;;;3.92;2.08;;;17.10;82.60;;;;;;5044318;28;20037;-55
2021/03/24 12:57:36;;;;;;;3.97;2.10;;;17.00;79.50;;;;;;5043436;28;20033;-55
2021/03/24 13:00:43;;;;;;;2.67;2.00;;;17.00;80.80;;;;;;5044083;28;20042;-55
2021/03/24 13:03:33;;;;;;;2.60;1.90;;;17.40;80.50;;;;;;5058734;28;20149;-54
2021/03/24 13:06:22;;;;;;;1.75;1.60;;;17.60;80.80;;;;;;5063662;28;20078;-55
2021/03/24 13:09:09;;;;;;;2.78;1.92;;;17.60;79.80;;;;;;5043845;28;20071;-55
2021/03/24 13:11:47;;;;;;;2.42;1.60;;;17.60;80.30;;;;;;5044430;28;20025;-56
2021/03/24 13:14:52;;;;;;;3.40;1.95;;;17.90;78.30;;;;;;5043750;28;20048;-57
2021/03/24 13:17:22;;;;;;;5.40;2.78;;;18.00;78.50;;;;;;5043208;28;20041;-55
2021/03/24 13:20:23;;;;;;;2.58;1.95;;;17.80;78.20;;;;;;5057607;28;20564;-55
2021/03/24 13:23:06;;;;;;;3.70;1.95;;;18.20;78.80;;;;;;5061321;28;20127;-55
2021/03/24 13:25:47;;;;;;;2.90;1.90;;;18.40;77.40;;;;;;5062824;28;20340;-55
2021/03/24 13:28:47;;;;;;;3.28;1.75;;;18.10;76.10;;;;;;5063422;28;20032;-56
2021/03/24 13:31:48;;;;;;;2.50;1.23;;;18.20;75.20;;;;;;5052708;28;20031;-55
2021/03/24 13:34:19;;;;;;;3.00;2.10;;;18.70;75.60;;;;;;5051764;28;20039;-55
2021/03/24 13:36:47;;;;;;;4.45;1.90;;;18.30;74.40;;;;;;5051435;28;20483;-55
2021/03/24 13:39:17;;;;;;;2.28;1.80;;;18.40;74.20;;;;;;5062251;28;20402;-56
2021/03/24 13:41:53;;;;;;;1.55;1.25;;;18.60;72.80;;;;;;5062669;28;20095;-56
2021/03/24 13:44:34;;;;;;;2.60;1.65;;;18.90;73.10;;;;;;5063517;28;20063;-55
2021/03/24 13:47:14;;;;;;;1.73;1.40;;;18.50;71.30;;;;;;5066314;28;20071;-54
2021/03/24 13:49:49;;;;;;;2.63;1.95;;;18.40;72.10;;;;;;5067863;28;20021;-56